createdAt,value
2022-11-25T00:01:35.392Z,12.57
2022-11-25T00:04:02.334Z,13.40
2022-11-25T00:06:30.689Z,11.40
2022-11-25T00:08:59.957Z,11.60
2022-11-25T00:11:31.261Z,13.00
2022-11-25T00:13:58.590Z,11.60
2022-11-25T00:16:27.011Z,12.27
2022-11-25T00:18:56.481Z,12.97
2022-11-25T00:21:25.237Z,12.23
2022-11-25T00:23:53.407Z,12.53
2022-11-25T00:26:21.149Z,11.83
2022-11-25T00:28:48.806Z,12.63
2022-11-25T00:31:17.980Z,12.27
2022-11-25T00:33:45.626Z,12.67
2022-11-25T00:36:18.008Z,12.20
2022-11-25T00:38:45.125Z,11.27
2022-11-25T00:41:31.527Z,11.40
2022-11-25T00:44:17.527Z,11.03
2022-11-25T00:46:44.737Z,10.93
2022-11-25T00:49:11.623Z,10.70
2022-11-25T00:51:40.341Z,11.83
2022-11-25T00:54:07.292Z,10.43
2022-11-25T00:56:34.202Z,11.53
2022-11-25T00:59:01.078Z,10.70
2022-11-25T01:01:28.407Z,10.43
2022-11-25T01:03:55.414Z,11.43
2022-11-25T01:06:23.043Z,10.00
2022-11-25T01:08:51.314Z,10.97
2022-11-25T01:11:20.382Z,11.67
2022-11-25T01:13:47.836Z,10.20
2022-11-25T01:16:16.565Z,10.17
2022-11-25T01:18:43.986Z,10.50
2022-11-25T01:21:13.216Z,10.60
2022-11-25T01:23:40.984Z,10.73
2022-11-25T01:26:12.713Z,10.00
2022-11-25T01:28:40.014Z,9.60
2022-11-25T01:31:08.773Z,10.03
2022-11-25T01:33:36.057Z,9.77
2022-11-25T01:36:04.070Z,9.60
2022-11-25T01:38:31.977Z,10.00
2022-11-25T01:40:59.595Z,9.90
2022-11-25T01:43:29.368Z,9.73
2022-11-25T01:46:01.332Z,9.63
2022-11-25T01:48:33.554Z,8.90
2022-11-25T01:51:01.094Z,8.83
2022-11-25T01:53:28.457Z,8.83
2022-11-25T01:56:00.072Z,8.90
2022-11-25T01:58:32.393Z,8.10
2022-11-25T02:00:59.749Z,8.00
2022-11-25T02:03:29.593Z,7.20
2022-11-25T02:06:03.816Z,7.23
2022-11-25T02:08:31.006Z,7.03
2022-11-25T02:10:58.483Z,6.90
2022-11-25T02:13:26.113Z,7.03
2022-11-25T02:15:54.479Z,6.77
2022-11-25T02:18:21.474Z,6.50
2022-11-25T02:20:48.514Z,6.83
2022-11-25T02:23:26.610Z,6.73
2022-11-25T02:25:55.036Z,6.63
2022-11-25T02:28:25.109Z,7.10
2022-11-25T02:30:52.623Z,6.80
2022-11-25T02:33:20.895Z,6.63
2022-11-25T02:35:49.982Z,7.07
2022-11-25T02:38:20.710Z,7.10
2022-11-25T02:40:51.345Z,6.53
2022-11-25T02:43:20.039Z,6.13
2022-11-25T02:45:55.286Z,6.17
2022-11-25T02:48:39.765Z,6.70
2022-11-25T02:51:11.996Z,6.87
2022-11-25T02:53:41.227Z,6.30
2022-11-25T02:56:08.977Z,6.87
2022-11-25T02:58:37.683Z,6.87
2022-11-25T03:01:04.844Z,7.03
2022-11-25T03:03:31.855Z,7.43
2022-11-25T03:05:58.789Z,7.00
2022-11-25T03:08:26.199Z,7.80
2022-11-25T03:10:53.062Z,8.00
2022-11-25T03:13:20.316Z,7.80
2022-11-25T03:15:48.534Z,7.83
2022-11-25T03:18:15.925Z,9.03
2022-11-25T03:20:42.861Z,8.57
2022-11-25T03:23:09.736Z,8.07
2022-11-25T03:25:36.728Z,8.63
2022-11-25T03:28:04.169Z,8.37
2022-11-25T03:30:32.011Z,8.40
2022-11-25T03:33:00.591Z,8.37
2022-11-25T03:35:27.610Z,9.50
2022-11-25T03:37:54.711Z,9.07
2022-11-25T03:40:21.849Z,8.93
2022-11-25T03:42:48.888Z,9.33
2022-11-25T03:45:16.326Z,10.33
2022-11-25T03:47:44.747Z,10.53
2022-11-25T03:50:14.554Z,10.77
2022-11-25T03:52:41.830Z,10.90
2022-11-25T03:55:09.581Z,11.10
2022-11-25T03:57:36.538Z,11.17
2022-11-25T04:00:05.292Z,10.17
2022-11-25T04:02:32.783Z,11.13
2022-11-25T04:04:59.740Z,11.00
2022-11-25T04:07:28.320Z,11.67
2022-11-25T04:09:55.211Z,10.63
2022-11-25T04:12:41.315Z,11.30
2022-11-25T04:15:09.019Z,10.90
2022-11-25T04:17:35.954Z,11.23
2022-11-25T04:20:04.484Z,10.70
2022-11-25T04:22:32.690Z,11.07
2022-11-25T04:24:59.958Z,10.30
2022-11-25T04:27:26.820Z,10.13
2022-11-25T04:29:54.030Z,9.67
2022-11-25T04:32:20.933Z,10.63
2022-11-25T04:34:48.153Z,10.23
2022-11-25T04:37:14.970Z,10.97
2022-11-25T04:39:43.500Z,9.20
2022-11-25T04:42:28.922Z,9.13
2022-11-25T04:45:20.991Z,9.40
2022-11-25T04:47:43.128Z,9.90
2022-11-25T04:50:16.290Z,9.73
2022-11-25T04:52:43.193Z,9.10
2022-11-25T04:55:11.634Z,8.90
2022-11-25T04:57:38.558Z,9.07
2022-11-25T05:00:07.837Z,9.27
2022-11-25T05:02:34.953Z,8.60
2022-11-25T05:05:02.665Z,8.20
2022-11-25T05:07:29.861Z,8.33
2022-11-25T05:09:57.544Z,8.67
2022-11-25T05:12:27.276Z,7.40
2022-11-25T05:14:54.773Z,8.10
2022-11-25T05:17:24.945Z,7.57
2022-11-25T05:19:52.421Z,8.30
2022-11-25T05:22:20.885Z,7.83
2022-11-25T05:24:48.188Z,8.20
2022-11-25T05:27:15.616Z,7.80
2022-11-25T05:29:44.572Z,7.83
2022-11-25T05:32:11.911Z,8.07
2022-11-25T05:34:39.698Z,7.67
2022-11-25T05:37:07.799Z,8.80
2022-11-25T05:39:35.262Z,7.57
2022-11-25T05:42:02.299Z,7.40
2022-11-25T05:44:29.506Z,7.77
2022-11-25T05:46:58.073Z,9.13
2022-11-25T05:49:24.931Z,9.10
2022-11-25T05:51:51.991Z,8.43
2022-11-25T05:54:18.934Z,7.77
2022-11-25T05:56:45.910Z,7.83
2022-11-25T05:59:13.129Z,8.20
2022-11-25T06:01:40.094Z,8.53
2022-11-25T06:04:08.323Z,7.50
2022-11-25T06:06:35.302Z,7.50
2022-11-25T06:09:02.235Z,8.20
2022-11-25T06:11:29.314Z,7.40
2022-11-25T06:13:57.814Z,8.53
2022-11-25T06:16:25.284Z,8.70
2022-11-25T06:18:52.361Z,8.20
2022-11-25T06:21:20.659Z,8.10
2022-11-25T06:23:48.000Z,8.03
2022-11-25T06:26:16.820Z,7.80
2022-11-25T06:28:44.346Z,8.00
2022-11-25T06:31:13.217Z,7.97
2022-11-25T06:33:40.722Z,8.23
2022-11-25T06:36:09.845Z,6.93
2022-11-25T06:38:38.077Z,8.17
2022-11-25T06:41:05.892Z,7.80
2022-11-25T06:43:32.970Z,7.63
2022-11-25T06:46:04.728Z,7.33
2022-11-25T06:48:32.104Z,8.33
2022-11-25T06:51:00.996Z,7.07
2022-11-25T06:53:28.641Z,6.53
2022-11-25T06:56:08.897Z,5.87
2022-11-25T06:58:37.293Z,6.97
2022-11-25T07:01:06.991Z,6.27
2022-11-25T07:03:34.358Z,6.33
2022-11-25T07:06:01.327Z,6.40
2022-11-25T07:08:33.778Z,7.47
2022-11-25T07:11:07.089Z,7.10
2022-11-25T07:13:34.416Z,7.00
2022-11-25T07:16:02.443Z,5.87
2022-11-25T07:18:31.410Z,6.13
2022-11-25T07:21:03.471Z,6.07
2022-11-25T07:23:30.848Z,6.30
2022-11-25T07:26:02.187Z,5.87
2022-11-25T07:28:30.452Z,5.87
2022-11-25T07:33:53.162Z,9.97
2022-11-25T07:36:20.010Z,8.23
2022-11-25T07:38:47.308Z,6.73
2022-11-25T07:41:15.492Z,5.50
2022-11-25T07:43:46.843Z,6.37
2022-11-25T07:46:16.473Z,5.10
2022-11-25T07:48:44.499Z,5.63
2022-11-25T07:51:16.538Z,5.50
2022-11-25T07:53:44.004Z,5.40
2022-11-25T07:56:10.990Z,7.17
2022-11-25T07:58:42.765Z,5.50
2022-11-25T08:01:16.385Z,5.67
2022-11-25T08:03:44.409Z,6.07
2022-11-25T08:06:13.401Z,6.30
2022-11-25T08:08:41.759Z,6.10
2022-11-25T08:11:10.102Z,5.97
2022-11-25T08:13:37.489Z,5.67
2022-11-25T08:16:04.985Z,5.97
2022-11-25T08:18:33.491Z,5.60
2022-11-25T08:21:01.106Z,5.47
2022-11-25T08:23:28.174Z,5.57
2022-11-25T08:25:55.140Z,7.27
2022-11-25T08:28:22.371Z,5.83
2022-11-25T08:30:49.327Z,6.10
2022-11-25T08:33:16.389Z,5.73
2022-11-25T08:35:44.632Z,5.57
2022-11-25T08:38:12.039Z,6.07
2022-11-25T08:40:43.906Z,5.07
2022-11-25T08:43:10.750Z,5.43
2022-11-25T08:45:39.597Z,5.57
2022-11-25T08:48:07.109Z,5.50
2022-11-25T08:50:34.343Z,6.40
2022-11-25T08:53:02.639Z,5.63
2022-11-25T08:55:29.602Z,5.83
2022-11-25T08:57:56.558Z,5.80
2022-11-25T09:00:23.913Z,5.53
2022-11-25T09:02:50.833Z,5.87
2022-11-25T09:05:18.123Z,6.47
2022-11-25T09:07:45.398Z,6.00
2022-11-25T09:10:17.411Z,5.47
2022-11-25T09:12:46.840Z,4.83
2022-11-25T09:15:13.990Z,5.10
2022-11-25T09:17:40.908Z,5.10
2022-11-25T09:20:08.555Z,5.23
2022-11-25T09:22:36.234Z,4.83
2022-11-25T09:25:03.971Z,5.17
2022-11-25T09:27:32.614Z,5.70
2022-11-25T09:29:59.487Z,4.87
2022-11-25T09:32:26.332Z,7.90
2022-11-25T09:34:53.466Z,9.07
2022-11-25T09:37:20.311Z,5.30
2022-11-25T09:39:47.226Z,5.50
2022-11-25T09:42:48.730Z,4.93
2022-11-25T09:45:40.953Z,4.97
2022-11-25T09:48:30.694Z,6.00
2022-11-25T09:51:10.295Z,5.27
2022-11-25T09:53:43.811Z,5.20
2022-11-25T09:56:17.352Z,5.63
2022-11-25T09:58:48.538Z,4.90
2022-11-25T10:01:21.074Z,5.10
2022-11-25T10:03:54.386Z,5.20
2022-11-25T10:06:24.754Z,5.63
2022-11-25T11:05:29.794Z,6.70
2022-11-25T11:08:18.631Z,6.83
2022-11-25T11:10:46.781Z,6.87
2022-11-25T11:13:23.857Z,6.37
2022-11-25T11:15:51.555Z,6.67
2022-11-25T11:18:25.566Z,5.63
2022-11-25T11:20:55.843Z,5.47
2022-11-25T11:23:22.914Z,5.87
2022-11-25T11:26:01.425Z,5.47
2022-11-25T11:28:37.460Z,4.43
2022-11-25T11:31:08.162Z,4.70
2022-11-25T11:33:41.182Z,4.93
2022-11-25T11:36:39.991Z,5.13
2022-11-25T11:39:22.768Z,3.87
2022-11-25T11:41:54.746Z,4.27
2022-11-25T11:44:30.305Z,4.33
2022-11-25T11:47:10.502Z,3.80
2022-11-25T11:49:59.894Z,4.17
2022-11-25T11:52:35.228Z,5.00
2022-11-25T11:55:15.162Z,3.50
2022-11-25T11:57:52.927Z,4.30
2022-11-25T12:00:21.232Z,4.77
2022-11-25T12:02:59.333Z,3.80
2022-11-25T12:05:29.767Z,4.00
2022-11-25T12:08:07.655Z,4.30
2022-11-25T12:10:40.311Z,4.03
2022-11-25T12:13:15.966Z,4.30
2022-11-25T12:15:49.936Z,4.37
2022-11-25T12:18:27.977Z,4.33
2022-11-25T12:21:01.393Z,4.07
2022-11-25T12:23:39.075Z,4.50
2022-11-25T12:26:13.200Z,4.37
2022-11-25T12:28:46.097Z,4.50
2022-11-25T12:31:18.608Z,4.20
2022-11-25T12:33:56.033Z,4.10
2022-11-25T12:36:31.233Z,4.00
2022-11-25T12:39:03.857Z,4.03
2022-11-25T12:41:40.859Z,3.70
2022-11-25T12:44:14.827Z,4.23
2022-11-25T12:46:45.280Z,3.27
2022-11-25T12:49:18.476Z,3.83
2022-11-25T12:52:27.131Z,3.70
2022-11-25T12:55:08.636Z,3.47
2022-11-25T12:58:02.200Z,4.00
2022-11-25T13:00:42.258Z,3.90
2022-11-25T13:03:34.852Z,4.10
2022-11-25T13:06:25.755Z,4.40
2022-11-25T13:09:01.044Z,3.83
2022-11-25T13:11:57.562Z,4.13
2022-11-25T13:14:29.050Z,4.40
2022-11-25T13:16:57.737Z,4.40
2022-11-25T13:19:25.871Z,4.97
2022-11-25T13:22:00.476Z,5.13
2022-11-25T13:24:31.301Z,4.87
2022-11-25T13:27:01.354Z,5.23
2022-11-25T13:30:00.483Z,5.10
2022-11-25T13:32:38.968Z,5.33
2022-11-25T13:35:49.663Z,5.33
2022-11-25T13:38:38.562Z,5.13
2022-11-25T13:41:22.446Z,5.10
2022-11-25T13:44:01.669Z,5.00
2022-11-25T13:46:36.916Z,4.70
2022-11-25T13:49:05.897Z,5.17
2022-11-25T13:51:34.119Z,5.27
2022-11-25T13:54:05.284Z,5.37
2022-11-25T13:56:34.964Z,4.90
2022-11-25T13:59:36.036Z,5.10
2022-11-25T14:02:35.756Z,5.50
2022-11-25T14:05:18.665Z,4.40
2022-11-25T14:07:52.388Z,4.87
2022-11-25T14:10:46.050Z,5.07
2022-11-25T14:13:40.445Z,4.87
2022-11-25T14:16:30.830Z,5.90
2022-11-25T14:22:32.521Z,5.77
2022-11-25T14:25:11.367Z,5.23
2022-11-25T14:27:38.967Z,5.47
2022-11-25T14:30:09.217Z,5.23
2022-11-25T14:32:43.648Z,5.60
2022-11-25T14:35:13.938Z,5.13
2022-11-25T14:37:45.334Z,5.87
2022-11-25T14:40:17.766Z,5.07
2022-11-25T14:42:49.126Z,6.17
2022-11-25T14:45:25.332Z,5.27
2022-11-25T14:47:53.758Z,5.47
2022-11-25T14:50:36.103Z,5.60
2022-11-25T14:53:06.863Z,5.50
2022-11-25T14:55:33.791Z,7.10
2022-11-25T14:58:00.719Z,6.73
2022-11-25T15:00:27.707Z,6.07
2022-11-25T15:02:58.050Z,6.20
2022-11-25T15:05:27.484Z,6.33
2022-11-25T15:07:59.158Z,6.23
2022-11-25T15:10:44.035Z,6.10
2022-11-25T15:13:27.028Z,5.50
2022-11-25T15:15:55.866Z,6.27
2022-11-25T15:18:25.884Z,6.60
2022-11-25T15:20:57.613Z,6.90
2022-11-25T15:23:28.947Z,6.67
2022-11-25T15:25:57.675Z,6.30
2022-11-25T15:28:24.537Z,6.30
2022-11-25T15:31:01.920Z,5.80
2022-11-25T15:33:30.983Z,6.70
2022-11-25T15:35:57.941Z,6.70
2022-11-25T15:38:44.077Z,6.00
2022-11-25T15:41:27.585Z,6.53
2022-11-25T15:43:57.513Z,5.73
2022-11-25T15:46:25.664Z,6.50
2022-11-25T15:48:58.367Z,7.40
2022-11-25T15:51:35.414Z,7.40
2022-11-25T15:54:06.767Z,7.27
2022-11-25T15:56:37.567Z,7.97
2022-11-25T15:59:04.818Z,7.20
2022-11-25T16:01:31.783Z,7.20
2022-11-25T16:04:21.104Z,6.70
2022-11-25T16:06:55.563Z,7.27
2022-11-25T16:09:25.412Z,7.50
2022-11-25T16:11:52.455Z,7.87
2022-11-25T16:14:28.289Z,7.70
2022-11-25T16:17:01.122Z,7.27
2022-11-25T16:19:37.620Z,7.20
2022-11-25T16:22:06.062Z,7.30
2022-11-25T16:24:46.156Z,6.80
2022-11-25T16:27:19.805Z,8.87
2022-11-25T16:30:11.348Z,7.53
2022-11-25T16:32:38.242Z,7.33
2022-11-25T16:35:14.903Z,7.33
2022-11-25T16:37:47.110Z,8.20
2022-11-25T16:40:17.061Z,7.57
2022-11-25T16:42:47.545Z,7.60
2022-11-25T16:45:19.806Z,8.03
2022-11-25T16:47:46.721Z,8.03
2022-11-25T16:50:16.949Z,9.50
2022-11-25T16:52:44.265Z,9.93
2022-11-25T16:55:11.669Z,10.80
2022-11-25T16:57:40.410Z,9.43
2022-11-25T17:00:13.117Z,8.40
2022-11-25T17:02:40.066Z,21.00
2022-11-25T17:05:18.513Z,12.30
2022-11-25T17:07:45.729Z,8.67
2022-11-25T17:10:13.212Z,13.10
2022-11-25T17:12:42.105Z,9.40
2022-11-25T17:15:15.406Z,8.23
2022-11-25T17:17:44.146Z,7.73
2022-11-25T17:20:16.255Z,8.33
2022-11-25T17:22:44.475Z,7.97
2022-11-25T17:25:13.009Z,8.27
2022-11-25T17:27:40.905Z,8.63
2022-11-25T17:30:16.046Z,8.87
2022-11-25T17:32:42.926Z,9.27
2022-11-25T17:35:18.052Z,8.63
2022-11-25T17:37:46.484Z,8.43
2022-11-25T17:40:14.508Z,10.10
2022-11-25T17:42:42.280Z,8.70
2022-11-25T17:45:13.667Z,9.37
2022-11-25T17:47:40.705Z,8.90
2022-11-25T17:50:19.922Z,9.47
2022-11-25T17:52:48.724Z,11.00
2022-11-25T17:55:19.979Z,9.80
2022-11-25T17:57:47.138Z,10.00
2022-11-25T18:00:16.524Z,9.97
2022-11-25T18:02:43.657Z,9.80
2022-11-25T18:05:14.419Z,10.10
2022-11-25T18:07:43.742Z,10.60
2022-11-25T18:10:13.942Z,15.07
2022-11-25T18:12:41.257Z,25.23
2022-11-25T18:15:15.541Z,13.53
2022-11-25T18:17:42.848Z,13.80
2022-11-25T18:20:16.271Z,12.57
2022-11-25T18:22:45.398Z,10.97
2022-11-25T18:25:18.702Z,10.73
2022-11-25T18:27:46.244Z,11.53
2022-11-25T18:30:19.916Z,10.90
2022-11-25T18:32:47.590Z,10.47
2022-11-25T18:35:20.320Z,11.27
2022-11-25T18:37:47.890Z,10.53
2022-11-25T18:40:17.124Z,11.67
2022-11-25T18:42:46.931Z,11.67
2022-11-25T18:45:17.571Z,11.97
2022-11-25T18:47:45.101Z,11.30
2022-11-25T18:50:17.308Z,10.97
2022-11-25T18:52:44.564Z,12.43
2022-11-25T18:55:13.076Z,12.30
2022-11-25T18:57:45.153Z,13.60
2022-11-25T19:00:33.042Z,12.27
2022-11-25T19:03:00.565Z,13.60
2022-11-25T19:05:31.434Z,13.37
2022-11-25T19:07:58.753Z,13.60
2022-11-25T19:10:29.278Z,14.17
2022-11-25T19:13:00.559Z,13.13
2022-11-25T19:15:28.172Z,13.07
2022-11-25T19:17:58.443Z,13.13
2022-11-25T19:20:30.440Z,13.80
2022-11-25T19:23:00.929Z,14.60
2022-11-25T19:25:29.050Z,14.33
2022-11-25T19:27:59.453Z,14.43
2022-11-25T19:30:30.472Z,14.63
2022-11-25T19:32:59.586Z,15.33
2022-11-25T19:35:31.514Z,15.43
2022-11-25T19:37:58.583Z,16.87
2022-11-25T19:40:25.535Z,38.10
2022-11-25T19:42:52.422Z,30.23
2022-11-25T19:45:21.709Z,27.33
2022-11-25T19:47:50.795Z,19.57
2022-11-25T19:50:22.469Z,16.50
2022-11-25T19:52:50.089Z,16.40
2022-11-25T19:55:20.279Z,16.50
2022-11-25T19:57:48.119Z,15.90
2022-11-25T20:00:16.950Z,17.47
2022-11-25T20:02:46.096Z,17.07
2022-11-25T20:05:18.633Z,17.50
2022-11-25T20:07:46.575Z,16.47
2022-11-25T20:10:21.199Z,17.13
2022-11-25T20:12:49.087Z,18.03
2022-11-25T20:15:16.658Z,19.17
2022-11-25T20:17:47.910Z,18.30
2022-11-25T20:20:19.300Z,19.30
2022-11-25T20:22:53.612Z,18.73
2022-11-25T20:25:21.375Z,19.63
2022-11-25T20:27:48.290Z,20.20
2022-11-25T20:30:19.804Z,20.17
2022-11-25T20:32:48.507Z,19.67
2022-11-25T20:35:16.131Z,21.00
2022-11-25T20:37:57.887Z,21.47
2022-11-25T20:40:32.935Z,20.30
2022-11-25T20:43:00.048Z,21.43
2022-11-25T20:45:27.380Z,21.97
2022-11-25T20:47:55.750Z,22.83
2022-11-25T20:50:23.030Z,23.00
2022-11-25T20:52:50.607Z,22.43
2022-11-25T20:55:21.269Z,22.30
2022-11-25T20:57:48.516Z,21.60
2022-11-25T21:00:20.867Z,22.33
2022-11-25T21:02:48.437Z,25.87
2022-11-25T21:05:18.522Z,42.33
2022-11-25T21:07:47.455Z,46.83
2022-11-25T21:10:22.218Z,28.43
2022-11-25T21:12:49.307Z,20.47
2022-11-25T21:15:20.589Z,20.43
2022-11-25T21:17:47.506Z,22.40
2022-11-25T21:20:17.198Z,19.33
2022-11-25T21:22:47.753Z,20.07
2022-11-25T21:25:17.744Z,18.60
2022-11-25T21:27:46.057Z,19.83
2022-11-25T21:30:18.598Z,20.30
2022-11-25T21:32:46.010Z,17.90
2022-11-25T21:35:13.114Z,19.77
2022-11-25T21:37:43.215Z,19.40
2022-11-25T21:40:27.867Z,20.03
2022-11-25T21:42:54.743Z,19.30
2022-11-25T21:45:22.202Z,20.63
2022-11-25T21:47:49.196Z,18.90
2022-11-25T21:50:18.685Z,20.37
2022-11-25T21:52:47.101Z,19.77
2022-11-25T21:55:16.436Z,20.37
2022-11-25T21:57:43.656Z,21.77
2022-11-25T22:00:21.055Z,19.27
2022-11-25T22:02:48.539Z,19.70
2022-11-25T22:05:17.126Z,19.70
2022-11-25T22:07:44.083Z,18.87
2022-11-25T22:10:15.108Z,20.40
2022-11-25T22:12:44.240Z,20.77
2022-11-25T22:15:15.456Z,20.37
2022-11-25T22:17:42.872Z,22.13
2022-11-25T22:20:27.322Z,20.53
2022-11-25T22:22:54.397Z,19.10
2022-11-25T22:25:24.807Z,20.13
2022-11-25T22:27:51.939Z,20.20
2022-11-25T22:30:21.776Z,20.27
2022-11-25T22:32:52.606Z,19.60
2022-11-25T22:35:21.967Z,20.40
2022-11-25T22:37:54.767Z,21.40
2022-11-25T22:40:24.225Z,20.87
2022-11-25T22:42:52.111Z,22.10
2022-11-25T22:45:26.632Z,23.73
2022-11-25T22:47:54.324Z,19.53
2022-11-25T22:50:23.472Z,20.47
2022-11-25T22:52:51.201Z,21.03
2022-11-25T22:55:20.910Z,21.97
2022-11-25T22:57:50.890Z,21.47
2022-11-25T23:00:20.227Z,20.73
2022-11-25T23:02:48.093Z,20.17
2022-11-25T23:05:31.929Z,21.63
2022-11-25T23:07:59.665Z,20.10
2022-11-25T23:10:29.235Z,20.77
2022-11-25T23:12:57.433Z,20.03
2022-11-25T23:15:25.097Z,20.03
2022-11-25T23:17:54.787Z,19.93
2022-11-25T23:20:24.203Z,20.10
2022-11-25T23:22:51.152Z,20.87
2022-11-25T23:25:19.940Z,20.87
2022-11-25T23:27:47.968Z,19.83
2022-11-25T23:30:19.004Z,20.37
2022-11-25T23:32:48.938Z,20.23
2022-11-25T23:35:18.489Z,20.03
2022-11-25T23:37:51.118Z,20.13
2022-11-25T23:40:20.771Z,20.23
2022-11-25T23:42:48.761Z,19.07
2022-11-25T23:45:19.436Z,19.37
2022-11-25T23:47:49.229Z,21.07
2022-11-25T23:50:23.295Z,19.77
2022-11-25T23:52:51.132Z,18.60
2022-11-25T23:55:23.662Z,18.80
2022-11-25T23:57:50.891Z,18.67
